sensor_id;sensor_type;location;lat;lon;timestamp;P1;durP1;ratioP1;P2;durP2;ratioP2
11827;SDS011;5971;49.646;8.568;2023-12-20T00:02:25;14.55;;;6.53;;
11827;SDS011;5971;49.646;8.568;2023-12-20T00:05:27;11.38;;;5.88;;
11827;SDS011;5971;49.646;8.568;2023-12-20T00:08:28;12.18;;;6.25;;
11827;SDS011;5971;49.646;8.568;2023-12-20T00:11:30;10.75;;;5.72;;
11827;SDS011;5971;49.646;8.568;2023-12-20T00:14:31;11.32;;;5.78;;
11827;SDS011;5971;49.646;8.568;2023-12-20T00:17:32;12.95;;;5.90;;
11827;SDS011;5971;49.646;8.568;2023-12-20T00:20:34;13.05;;;6.75;;
11827;SDS011;5971;49.646;8.568;2023-12-20T00:23:35;13.93;;;6.90;;
11827;SDS011;5971;49.646;8.568;2023-12-20T00:26:36;14.25;;;6.65;;
11827;SDS011;5971;49.646;8.568;2023-12-20T00:29:38;12.23;;;6.32;;
11827;SDS011;5971;49.646;8.568;2023-12-20T00:32:39;14.23;;;6.32;;
11827;SDS011;5971;49.646;8.568;2023-12-20T00:35:42;12.68;;;7.07;;
11827;SDS011;5971;49.646;8.568;2023-12-20T00:38:44;12.65;;;6.32;;
11827;SDS011;5971;49.646;8.568;2023-12-20T00:41:45;12.52;;;6.50;;
11827;SDS011;5971;49.646;8.568;2023-12-20T00:44:46;13.70;;;6.45;;
11827;SDS011;5971;49.646;8.568;2023-12-20T00:47:47;15.27;;;8.48;;
11827;SDS011;5971;49.646;8.568;2023-12-20T00:50:49;11.65;;;5.65;;
11827;SDS011;5971;49.646;8.568;2023-12-20T00:53:50;11.95;;;5.40;;
11827;SDS011;5971;49.646;8.568;2023-12-20T00:59:56;11.75;;;5.45;;
11827;SDS011;5971;49.646;8.568;2023-12-20T01:02:58;11.77;;;5.75;;
11827;SDS011;5971;49.646;8.568;2023-12-20T01:05:59;10.95;;;5.43;;
11827;SDS011;5971;49.646;8.568;2023-12-20T01:09:01;11.13;;;5.63;;
11827;SDS011;5971;49.646;8.568;2023-12-20T01:12:02;10.75;;;5.63;;
11827;SDS011;5971;49.646;8.568;2023-12-20T01:15:03;12.68;;;6.22;;
11827;SDS011;5971;49.646;8.568;2023-12-20T01:18:05;14.07;;;6.95;;
11827;SDS011;5971;49.646;8.568;2023-12-20T01:21:06;12.15;;;5.72;;
11827;SDS011;5971;49.646;8.568;2023-12-20T01:24:08;14.20;;;6.25;;
11827;SDS011;5971;49.646;8.568;2023-12-20T01:27:09;12.32;;;5.68;;
11827;SDS011;5971;49.646;8.568;2023-12-20T01:30:10;11.70;;;5.47;;
11827;SDS011;5971;49.646;8.568;2023-12-20T01:33:12;11.40;;;5.35;;
11827;SDS011;5971;49.646;8.568;2023-12-20T01:36:13;10.45;;;5.13;;
11827;SDS011;5971;49.646;8.568;2023-12-20T01:39:14;12.85;;;5.78;;
11827;SDS011;5971;49.646;8.568;2023-12-20T01:42:28;11.38;;;5.90;;
11827;SDS011;5971;49.646;8.568;2023-12-20T01:45:30;8.18;;;4.65;;
11827;SDS011;5971;49.646;8.568;2023-12-20T01:48:32;9.48;;;4.72;;
11827;SDS011;5971;49.646;8.568;2023-12-20T01:51:33;11.52;;;5.57;;
11827;SDS011;5971;49.646;8.568;2023-12-20T01:54:35;12.35;;;6.40;;
11827;SDS011;5971;49.646;8.568;2023-12-20T01:57:36;11.00;;;5.68;;
11827;SDS011;5971;49.646;8.568;2023-12-20T02:00:38;12.68;;;6.10;;
11827;SDS011;5971;49.646;8.568;2023-12-20T02:03:41;12.07;;;5.38;;
11827;SDS011;5971;49.646;8.568;2023-12-20T02:06:42;9.18;;;4.22;;
11827;SDS011;5971;49.646;8.568;2023-12-20T02:09:44;8.43;;;4.60;;
11827;SDS011;5971;49.646;8.568;2023-12-20T02:12:46;7.70;;;3.88;;
11827;SDS011;5971;49.646;8.568;2023-12-20T02:15:47;5.78;;;2.60;;
11827;SDS011;5971;49.646;8.568;2023-12-20T02:18:49;7.70;;;4.10;;
11827;SDS011;5971;49.646;8.568;2023-12-20T02:21:50;5.00;;;3.50;;
11827;SDS011;5971;49.646;8.568;2023-12-20T02:25:05;5.03;;;3.38;;
11827;SDS011;5971;49.646;8.568;2023-12-20T02:28:06;6.78;;;2.78;;
11827;SDS011;5971;49.646;8.568;2023-12-20T02:31:08;6.40;;;2.55;;
11827;SDS011;5971;49.646;8.568;2023-12-20T02:34:09;5.13;;;2.97;;
11827;SDS011;5971;49.646;8.568;2023-12-20T02:37:11;6.22;;;2.63;;
11827;SDS011;5971;49.646;8.568;2023-12-20T02:40:12;5.65;;;2.25;;
11827;SDS011;5971;49.646;8.568;2023-12-20T02:43:14;5.18;;;2.13;;
11827;SDS011;5971;49.646;8.568;2023-12-20T02:46:15;5.50;;;2.67;;
11827;SDS011;5971;49.646;8.568;2023-12-20T02:49:17;4.47;;;2.30;;
11827;SDS011;5971;49.646;8.568;2023-12-20T02:52:18;4.68;;;2.03;;
11827;SDS011;5971;49.646;8.568;2023-12-20T02:55:20;5.75;;;2.63;;
11827;SDS011;5971;49.646;8.568;2023-12-20T02:58:21;7.88;;;3.10;;
11827;SDS011;5971;49.646;8.568;2023-12-20T03:01:23;6.35;;;3.20;;
11827;SDS011;5971;49.646;8.568;2023-12-20T03:04:24;5.93;;;3.25;;
11827;SDS011;5971;49.646;8.568;2023-12-20T03:07:26;6.68;;;3.58;;
11827;SDS011;5971;49.646;8.568;2023-12-20T03:10:28;6.15;;;3.38;;
11827;SDS011;5971;49.646;8.568;2023-12-20T03:13:29;9.98;;;3.42;;
11827;SDS011;5971;49.646;8.568;2023-12-20T03:16:30;8.15;;;3.72;;
11827;SDS011;5971;49.646;8.568;2023-12-20T03:19:36;5.55;;;3.15;;
11827;SDS011;5971;49.646;8.568;2023-12-20T03:22:38;7.57;;;4.00;;
11827;SDS011;5971;49.646;8.568;2023-12-20T03:25:39;5.60;;;2.92;;
11827;SDS011;5971;49.646;8.568;2023-12-20T03:28:41;7.97;;;3.53;;
11827;SDS011;5971;49.646;8.568;2023-12-20T03:31:42;7.18;;;3.17;;
11827;SDS011;5971;49.646;8.568;2023-12-20T03:34:43;8.30;;;3.42;;
11827;SDS011;5971;49.646;8.568;2023-12-20T03:37:45;5.80;;;2.67;;
11827;SDS011;5971;49.646;8.568;2023-12-20T03:40:47;5.88;;;3.10;;
11827;SDS011;5971;49.646;8.568;2023-12-20T03:43:48;5.43;;;3.15;;
11827;SDS011;5971;49.646;8.568;2023-12-20T03:46:49;5.85;;;3.30;;
11827;SDS011;5971;49.646;8.568;2023-12-20T03:49:51;5.68;;;2.28;;
11827;SDS011;5971;49.646;8.568;2023-12-20T03:52:52;4.88;;;2.22;;
11827;SDS011;5971;49.646;8.568;2023-12-20T03:55:54;5.70;;;2.53;;
11827;SDS011;5971;49.646;8.568;2023-12-20T03:58:55;4.35;;;2.70;;
11827;SDS011;5971;49.646;8.568;2023-12-20T04:01:56;4.10;;;2.05;;
11827;SDS011;5971;49.646;8.568;2023-12-20T04:04:58;4.60;;;3.13;;
11827;SDS011;5971;49.646;8.568;2023-12-20T04:08:00;6.28;;;3.25;;
11827;SDS011;5971;49.646;8.568;2023-12-20T04:11:02;4.97;;;3.40;;
11827;SDS011;5971;49.646;8.568;2023-12-20T04:14:04;6.03;;;3.17;;
11827;SDS011;5971;49.646;8.568;2023-12-20T04:17:08;4.80;;;2.20;;
11827;SDS011;5971;49.646;8.568;2023-12-20T04:20:10;4.75;;;2.75;;
11827;SDS011;5971;49.646;8.568;2023-12-20T04:23:11;5.40;;;2.58;;
11827;SDS011;5971;49.646;8.568;2023-12-20T04:26:13;5.03;;;2.90;;
11827;SDS011;5971;49.646;8.568;2023-12-20T04:29:14;4.93;;;3.13;;
11827;SDS011;5971;49.646;8.568;2023-12-20T04:32:15;4.85;;;2.83;;
11827;SDS011;5971;49.646;8.568;2023-12-20T04:35:16;5.03;;;3.10;;
11827;SDS011;5971;49.646;8.568;2023-12-20T04:38:18;5.43;;;2.70;;
11827;SDS011;5971;49.646;8.568;2023-12-20T04:41:19;6.13;;;3.00;;
11827;SDS011;5971;49.646;8.568;2023-12-20T04:44:20;5.15;;;2.55;;
11827;SDS011;5971;49.646;8.568;2023-12-20T04:47:22;4.22;;;2.22;;
11827;SDS011;5971;49.646;8.568;2023-12-20T04:50:23;4.15;;;2.25;;
11827;SDS011;5971;49.646;8.568;2023-12-20T04:53:25;4.57;;;2.35;;
11827;SDS011;5971;49.646;8.568;2023-12-20T04:56:27;6.60;;;3.13;;
11827;SDS011;5971;49.646;8.568;2023-12-20T04:59:28;5.05;;;2.58;;
11827;SDS011;5971;49.646;8.568;2023-12-20T05:02:30;4.75;;;2.70;;
11827;SDS011;5971;49.646;8.568;2023-12-20T05:05:31;5.60;;;3.10;;
11827;SDS011;5971;49.646;8.568;2023-12-20T05:08:33;6.20;;;2.85;;
11827;SDS011;5971;49.646;8.568;2023-12-20T05:11:34;4.10;;;2.28;;
11827;SDS011;5971;49.646;8.568;2023-12-20T05:14:36;5.00;;;3.65;;
11827;SDS011;5971;49.646;8.568;2023-12-20T05:17:37;4.80;;;3.05;;
11827;SDS011;5971;49.646;8.568;2023-12-20T05:20:39;5.07;;;2.60;;
11827;SDS011;5971;49.646;8.568;2023-12-20T05:23:40;5.25;;;2.58;;
11827;SDS011;5971;49.646;8.568;2023-12-20T05:26:42;4.57;;;2.90;;
11827;SDS011;5971;49.646;8.568;2023-12-20T05:29:43;4.82;;;3.00;;
11827;SDS011;5971;49.646;8.568;2023-12-20T05:32:44;4.68;;;2.30;;
11827;SDS011;5971;49.646;8.568;2023-12-20T05:35:46;6.70;;;2.70;;
11827;SDS011;5971;49.646;8.568;2023-12-20T05:38:47;5.03;;;2.72;;
11827;SDS011;5971;49.646;8.568;2023-12-20T05:41:48;5.80;;;3.15;;
11827;SDS011;5971;49.646;8.568;2023-12-20T05:44:50;6.05;;;3.13;;
11827;SDS011;5971;49.646;8.568;2023-12-20T05:47:54;7.47;;;3.00;;
11827;SDS011;5971;49.646;8.568;2023-12-20T05:50:56;5.97;;;3.17;;
11827;SDS011;5971;49.646;8.568;2023-12-20T05:53:57;6.72;;;3.60;;
11827;SDS011;5971;49.646;8.568;2023-12-20T05:56:58;5.90;;;2.80;;
11827;SDS011;5971;49.646;8.568;2023-12-20T06:00:00;5.72;;;2.95;;
11827;SDS011;5971;49.646;8.568;2023-12-20T06:03:01;6.00;;;3.10;;
11827;SDS011;5971;49.646;8.568;2023-12-20T06:06:06;8.70;;;5.13;;
11827;SDS011;5971;49.646;8.568;2023-12-20T06:09:17;6.38;;;3.47;;
11827;SDS011;5971;49.646;8.568;2023-12-20T06:12:18;9.18;;;4.43;;
11827;SDS011;5971;49.646;8.568;2023-12-20T06:15:19;7.85;;;3.53;;
11827;SDS011;5971;49.646;8.568;2023-12-20T06:18:20;7.15;;;4.57;;
11827;SDS011;5971;49.646;8.568;2023-12-20T06:21:22;8.38;;;4.35;;
11827;SDS011;5971;49.646;8.568;2023-12-20T06:24:23;7.65;;;3.88;;
11827;SDS011;5971;49.646;8.568;2023-12-20T06:27:28;6.97;;;3.58;;
11827;SDS011;5971;49.646;8.568;2023-12-20T06:30:30;8.88;;;4.05;;
11827;SDS011;5971;49.646;8.568;2023-12-20T06:33:33;7.78;;;4.05;;
11827;SDS011;5971;49.646;8.568;2023-12-20T06:36:35;10.50;;;4.80;;
11827;SDS011;5971;49.646;8.568;2023-12-20T06:39:36;8.10;;;3.83;;
11827;SDS011;5971;49.646;8.568;2023-12-20T06:42:38;7.30;;;3.88;;
11827;SDS011;5971;49.646;8.568;2023-12-20T06:45:53;7.20;;;4.00;;
11827;SDS011;5971;49.646;8.568;2023-12-20T06:48:55;6.32;;;3.42;;
11827;SDS011;5971;49.646;8.568;2023-12-20T06:51:56;8.18;;;4.57;;
11827;SDS011;5971;49.646;8.568;2023-12-20T06:54:58;7.00;;;3.67;;
11827;SDS011;5971;49.646;8.568;2023-12-20T06:58:00;7.60;;;4.50;;
11827;SDS011;5971;49.646;8.568;2023-12-20T07:01:01;9.93;;;3.88;;
11827;SDS011;5971;49.646;8.568;2023-12-20T07:04:03;8.57;;;5.32;;
11827;SDS011;5971;49.646;8.568;2023-12-20T07:07:04;11.10;;;4.80;;
11827;SDS011;5971;49.646;8.568;2023-12-20T07:10:06;8.13;;;4.72;;
11827;SDS011;5971;49.646;8.568;2023-12-20T07:13:08;8.77;;;4.43;;
11827;SDS011;5971;49.646;8.568;2023-12-20T07:16:10;7.88;;;4.97;;
11827;SDS011;5971;49.646;8.568;2023-12-20T07:19:11;7.75;;;4.13;;
11827;SDS011;5971;49.646;8.568;2023-12-20T07:22:13;12.18;;;6.32;;
11827;SDS011;5971;49.646;8.568;2023-12-20T07:25:14;13.00;;;6.45;;
11827;SDS011;5971;49.646;8.568;2023-12-20T07:28:16;13.75;;;5.80;;
11827;SDS011;5971;49.646;8.568;2023-12-20T07:31:17;11.45;;;5.13;;
11827;SDS011;5971;49.646;8.568;2023-12-20T07:34:22;14.57;;;5.88;;
11827;SDS011;5971;49.646;8.568;2023-12-20T07:37:23;16.58;;;7.72;;
11827;SDS011;5971;49.646;8.568;2023-12-20T07:40:25;13.07;;;6.97;;
11827;SDS011;5971;49.646;8.568;2023-12-20T07:43:26;9.57;;;4.97;;
11827;SDS011;5971;49.646;8.568;2023-12-20T07:46:28;10.93;;;5.50;;
11827;SDS011;5971;49.646;8.568;2023-12-20T07:49:32;10.85;;;7.00;;
11827;SDS011;5971;49.646;8.568;2023-12-20T07:52:34;14.40;;;8.23;;
11827;SDS011;5971;49.646;8.568;2023-12-20T07:55:35;10.32;;;5.50;;
11827;SDS011;5971;49.646;8.568;2023-12-20T07:58:36;12.07;;;5.50;;
11827;SDS011;5971;49.646;8.568;2023-12-20T08:01:52;11.35;;;6.15;;
11827;SDS011;5971;49.646;8.568;2023-12-20T08:04:53;10.85;;;4.55;;
11827;SDS011;5971;49.646;8.568;2023-12-20T08:07:55;7.07;;;3.53;;
11827;SDS011;5971;49.646;8.568;2023-12-20T08:10:56;8.52;;;4.05;;
11827;SDS011;5971;49.646;8.568;2023-12-20T08:14:00;6.50;;;3.67;;
11827;SDS011;5971;49.646;8.568;2023-12-20T08:17:01;9.52;;;4.28;;
11827;SDS011;5971;49.646;8.568;2023-12-20T08:20:03;6.43;;;3.95;;
11827;SDS011;5971;49.646;8.568;2023-12-20T08:23:05;7.10;;;3.35;;
11827;SDS011;5971;49.646;8.568;2023-12-20T08:26:06;8.45;;;3.13;;
11827;SDS011;5971;49.646;8.568;2023-12-20T08:29:08;6.15;;;3.28;;
11827;SDS011;5971;49.646;8.568;2023-12-20T08:32:09;7.18;;;2.78;;
11827;SDS011;5971;49.646;8.568;2023-12-20T08:35:10;5.72;;;3.20;;
11827;SDS011;5971;49.646;8.568;2023-12-20T08:38:12;5.35;;;3.40;;
11827;SDS011;5971;49.646;8.568;2023-12-20T08:41:13;6.38;;;2.72;;
11827;SDS011;5971;49.646;8.568;2023-12-20T08:44:14;4.72;;;2.67;;
11827;SDS011;5971;49.646;8.568;2023-12-20T08:47:16;6.97;;;2.72;;
11827;SDS011;5971;49.646;8.568;2023-12-20T08:50:18;6.63;;;2.38;;
11827;SDS011;5971;49.646;8.568;2023-12-20T08:53:20;10.02;;;4.45;;
11827;SDS011;5971;49.646;8.568;2023-12-20T08:56:21;5.97;;;2.20;;
11827;SDS011;5971;49.646;8.568;2023-12-20T08:59:22;8.10;;;3.10;;
11827;SDS011;5971;49.646;8.568;2023-12-20T09:02:24;4.50;;;2.10;;
11827;SDS011;5971;49.646;8.568;2023-12-20T09:05:25;5.30;;;2.33;;
11827;SDS011;5971;49.646;8.568;2023-12-20T09:08:27;9.05;;;2.40;;
11827;SDS011;5971;49.646;8.568;2023-12-20T09:11:28;5.78;;;2.17;;
11827;SDS011;5971;49.646;8.568;2023-12-20T09:14:30;4.93;;;2.80;;
11827;SDS011;5971;49.646;8.568;2023-12-20T09:17:31;5.65;;;1.75;;
11827;SDS011;5971;49.646;8.568;2023-12-20T09:20:35;5.35;;;2.08;;
11827;SDS011;5971;49.646;8.568;2023-12-20T09:23:39;2.78;;;1.38;;
11827;SDS011;5971;49.646;8.568;2023-12-20T09:26:41;5.93;;;2.05;;
11827;SDS011;5971;49.646;8.568;2023-12-20T09:29:43;5.32;;;2.03;;
11827;SDS011;5971;49.646;8.568;2023-12-20T09:32:45;4.90;;;1.85;;
11827;SDS011;5971;49.646;8.568;2023-12-20T09:35:48;2.90;;;1.70;;
11827;SDS011;5971;49.646;8.568;2023-12-20T09:38:50;7.90;;;1.88;;
11827;SDS011;5971;49.646;8.568;2023-12-20T09:42:02;5.53;;;1.83;;
11827;SDS011;5971;49.646;8.568;2023-12-20T09:45:04;3.88;;;1.60;;
11827;SDS011;5971;49.646;8.568;2023-12-20T09:48:09;4.18;;;1.85;;
11827;SDS011;5971;49.646;8.568;2023-12-20T09:51:12;6.22;;;1.90;;
11827;SDS011;5971;49.646;8.568;2023-12-20T09:54:14;4.60;;;1.95;;
11827;SDS011;5971;49.646;8.568;2023-12-20T09:57:15;8.57;;;2.05;;
11827;SDS011;5971;49.646;8.568;2023-12-20T10:00:16;4.65;;;2.38;;
11827;SDS011;5971;49.646;8.568;2023-12-20T10:03:24;3.80;;;1.83;;
11827;SDS011;5971;49.646;8.568;2023-12-20T10:06:26;7.50;;;1.95;;
11827;SDS011;5971;49.646;8.568;2023-12-20T10:09:28;5.93;;;2.28;;
11827;SDS011;5971;49.646;8.568;2023-12-20T10:12:31;3.72;;;2.38;;
11827;SDS011;5971;49.646;8.568;2023-12-20T10:15:33;4.03;;;1.70;;
11827;SDS011;5971;49.646;8.568;2023-12-20T10:18:34;5.55;;;2.17;;
11827;SDS011;5971;49.646;8.568;2023-12-20T10:21:39;3.65;;;1.77;;
11827;SDS011;5971;49.646;8.568;2023-12-20T10:24:42;3.60;;;1.80;;
11827;SDS011;5971;49.646;8.568;2023-12-20T10:27:43;4.32;;;2.00;;
11827;SDS011;5971;49.646;8.568;2023-12-20T10:30:45;8.82;;;2.10;;
11827;SDS011;5971;49.646;8.568;2023-12-20T10:33:46;7.18;;;2.03;;
11827;SDS011;5971;49.646;8.568;2023-12-20T10:36:48;6.22;;;2.00;;
11827;SDS011;5971;49.646;8.568;2023-12-20T10:39:50;6.28;;;2.63;;
11827;SDS011;5971;49.646;8.568;2023-12-20T10:42:52;5.35;;;2.00;;
11827;SDS011;5971;49.646;8.568;2023-12-20T10:45:54;5.65;;;1.45;;
11827;SDS011;5971;49.646;8.568;2023-12-20T10:48:56;4.82;;;1.65;;
11827;SDS011;5971;49.646;8.568;2023-12-20T10:51:58;6.68;;;2.67;;
11827;SDS011;5971;49.646;8.568;2023-12-20T10:55:01;6.30;;;1.65;;
11827;SDS011;5971;49.646;8.568;2023-12-20T10:58:11;2.95;;;1.40;;
11827;SDS011;5971;49.646;8.568;2023-12-20T11:01:14;6.38;;;1.67;;
11827;SDS011;5971;49.646;8.568;2023-12-20T11:04:18;4.82;;;2.08;;
11827;SDS011;5971;49.646;8.568;2023-12-20T11:07:25;6.35;;;2.15;;
11827;SDS011;5971;49.646;8.568;2023-12-20T11:10:29;5.63;;;1.98;;
11827;SDS011;5971;49.646;8.568;2023-12-20T11:13:32;5.88;;;1.85;;
11827;SDS011;5971;49.646;8.568;2023-12-20T11:16:38;3.58;;;1.63;;
11827;SDS011;5971;49.646;8.568;2023-12-20T11:22:59;3.92;;;1.50;;
11827;SDS011;5971;49.646;8.568;2023-12-20T11:26:00;7.35;;;1.95;;
11827;SDS011;5971;49.646;8.568;2023-12-20T11:29:28;4.05;;;1.75;;
11827;SDS011;5971;49.646;8.568;2023-12-20T11:35:25;6.88;;;2.47;;
11827;SDS011;5971;49.646;8.568;2023-12-20T11:38:27;6.20;;;2.33;;
11827;SDS011;5971;49.646;8.568;2023-12-20T11:41:28;7.28;;;2.28;;
11827;SDS011;5971;49.646;8.568;2023-12-20T11:44:29;3.40;;;1.75;;
11827;SDS011;5971;49.646;8.568;2023-12-20T11:47:31;4.35;;;1.80;;
11827;SDS011;5971;49.646;8.568;2023-12-20T11:50:33;2.95;;;1.42;;
11827;SDS011;5971;49.646;8.568;2023-12-20T11:53:34;5.15;;;1.88;;
11827;SDS011;5971;49.646;8.568;2023-12-20T11:56:36;5.30;;;2.58;;
11827;SDS011;5971;49.646;8.568;2023-12-20T11:59:37;4.13;;;1.92;;
11827;SDS011;5971;49.646;8.568;2023-12-20T12:02:38;7.20;;;2.17;;
11827;SDS011;5971;49.646;8.568;2023-12-20T12:05:40;4.35;;;1.83;;
11827;SDS011;5971;49.646;8.568;2023-12-20T12:08:41;5.82;;;2.00;;
11827;SDS011;5971;49.646;8.568;2023-12-20T12:11:43;4.50;;;2.13;;
11827;SDS011;5971;49.646;8.568;2023-12-20T12:14:45;5.10;;;2.42;;
11827;SDS011;5971;49.646;8.568;2023-12-20T12:17:56;6.68;;;2.17;;
11827;SDS011;5971;49.646;8.568;2023-12-20T12:24:09;5.53;;;1.80;;
11827;SDS011;5971;49.646;8.568;2023-12-20T12:27:11;6.90;;;2.10;;
11827;SDS011;5971;49.646;8.568;2023-12-20T12:30:13;8.10;;;2.40;;
11827;SDS011;5971;49.646;8.568;2023-12-20T12:33:18;3.75;;;1.60;;
11827;SDS011;5971;49.646;8.568;2023-12-20T12:36:20;6.47;;;2.13;;
11827;SDS011;5971;49.646;8.568;2023-12-20T12:39:21;6.68;;;2.28;;
11827;SDS011;5971;49.646;8.568;2023-12-20T12:42:24;5.60;;;2.17;;
11827;SDS011;5971;49.646;8.568;2023-12-20T12:45:29;6.90;;;2.13;;
11827;SDS011;5971;49.646;8.568;2023-12-20T12:48:31;5.68;;;3.38;;
11827;SDS011;5971;49.646;8.568;2023-12-20T12:51:33;4.80;;;2.03;;
11827;SDS011;5971;49.646;8.568;2023-12-20T12:54:34;5.22;;;1.98;;
11827;SDS011;5971;49.646;8.568;2023-12-20T12:57:36;3.55;;;1.42;;
11827;SDS011;5971;49.646;8.568;2023-12-20T13:00:37;6.03;;;2.15;;
11827;SDS011;5971;49.646;8.568;2023-12-20T13:03:39;5.95;;;1.92;;
11827;SDS011;5971;49.646;8.568;2023-12-20T13:06:40;6.53;;;1.98;;
11827;SDS011;5971;49.646;8.568;2023-12-20T13:09:43;6.43;;;1.92;;
11827;SDS011;5971;49.646;8.568;2023-12-20T13:12:45;3.42;;;1.52;;
11827;SDS011;5971;49.646;8.568;2023-12-20T13:15:47;3.90;;;1.83;;
11827;SDS011;5971;49.646;8.568;2023-12-20T13:18:53;5.65;;;2.15;;
11827;SDS011;5971;49.646;8.568;2023-12-20T13:21:55;3.83;;;1.70;;
11827;SDS011;5971;49.646;8.568;2023-12-20T13:24:57;5.95;;;1.75;;
11827;SDS011;5971;49.646;8.568;2023-12-20T13:27:58;6.95;;;2.60;;
11827;SDS011;5971;49.646;8.568;2023-12-20T13:31:00;6.97;;;2.40;;
11827;SDS011;5971;49.646;8.568;2023-12-20T13:34:02;6.95;;;1.98;;
11827;SDS011;5971;49.646;8.568;2023-12-20T13:37:03;5.47;;;1.80;;
11827;SDS011;5971;49.646;8.568;2023-12-20T13:40:06;4.38;;;1.70;;
11827;SDS011;5971;49.646;8.568;2023-12-20T13:43:08;4.85;;;1.58;;
11827;SDS011;5971;49.646;8.568;2023-12-20T13:46:09;2.97;;;1.27;;
11827;SDS011;5971;49.646;8.568;2023-12-20T13:49:10;6.40;;;1.77;;
11827;SDS011;5971;49.646;8.568;2023-12-20T13:52:13;4.50;;;1.45;;
11827;SDS011;5971;49.646;8.568;2023-12-20T13:55:14;6.95;;;1.77;;
11827;SDS011;5971;49.646;8.568;2023-12-20T13:58:16;6.05;;;1.65;;
11827;SDS011;5971;49.646;8.568;2023-12-20T14:01:17;2.88;;;1.33;;
11827;SDS011;5971;49.646;8.568;2023-12-20T14:04:19;4.03;;;1.40;;
11827;SDS011;5971;49.646;8.568;2023-12-20T14:07:41;4.97;;;1.65;;
11827;SDS011;5971;49.646;8.568;2023-12-20T14:10:42;4.15;;;1.25;;
11827;SDS011;5971;49.646;8.568;2023-12-20T14:13:44;2.90;;;1.55;;
11827;SDS011;5971;49.646;8.568;2023-12-20T14:16:45;3.53;;;1.23;;
11827;SDS011;5971;49.646;8.568;2023-12-20T14:19:46;4.75;;;1.40;;
11827;SDS011;5971;49.646;8.568;2023-12-20T14:22:48;3.47;;;1.40;;
11827;SDS011;5971;49.646;8.568;2023-12-20T14:25:49;4.22;;;1.55;;
11827;SDS011;5971;49.646;8.568;2023-12-20T14:28:53;2.38;;;1.42;;
11827;SDS011;5971;49.646;8.568;2023-12-20T14:31:54;3.17;;;1.52;;
11827;SDS011;5971;49.646;8.568;2023-12-20T14:34:55;6.10;;;2.15;;
11827;SDS011;5971;49.646;8.568;2023-12-20T14:37:57;7.70;;;2.17;;
11827;SDS011;5971;49.646;8.568;2023-12-20T14:40:58;5.18;;;1.27;;
11827;SDS011;5971;49.646;8.568;2023-12-20T14:44:00;4.25;;;1.33;;
11827;SDS011;5971;49.646;8.568;2023-12-20T14:47:01;5.80;;;1.92;;
11827;SDS011;5971;49.646;8.568;2023-12-20T14:50:03;3.55;;;1.33;;
11827;SDS011;5971;49.646;8.568;2023-12-20T14:53:05;2.13;;;1.02;;
11827;SDS011;5971;49.646;8.568;2023-12-20T14:56:07;7.28;;;1.58;;
11827;SDS011;5971;49.646;8.568;2023-12-20T14:59:08;5.35;;;1.50;;
11827;SDS011;5971;49.646;8.568;2023-12-20T15:02:09;3.67;;;1.23;;
11827;SDS011;5971;49.646;8.568;2023-12-20T15:05:11;5.60;;;1.60;;
11827;SDS011;5971;49.646;8.568;2023-12-20T15:08:12;3.80;;;1.90;;
11827;SDS011;5971;49.646;8.568;2023-12-20T15:11:13;4.13;;;1.33;;
11827;SDS011;5971;49.646;8.568;2023-12-20T15:14:15;4.10;;;1.38;;
11827;SDS011;5971;49.646;8.568;2023-12-20T15:17:20;4.88;;;2.22;;
11827;SDS011;5971;49.646;8.568;2023-12-20T15:20:21;3.05;;;1.70;;
11827;SDS011;5971;49.646;8.568;2023-12-20T15:23:23;3.13;;;1.45;;
11827;SDS011;5971;49.646;8.568;2023-12-20T15:26:27;3.60;;;1.40;;
11827;SDS011;5971;49.646;8.568;2023-12-20T15:29:30;3.55;;;1.65;;
11827;SDS011;5971;49.646;8.568;2023-12-20T15:32:32;6.22;;;1.90;;
11827;SDS011;5971;49.646;8.568;2023-12-20T15:35:34;5.18;;;1.70;;
11827;SDS011;5971;49.646;8.568;2023-12-20T15:38:35;5.10;;;1.65;;
11827;SDS011;5971;49.646;8.568;2023-12-20T15:41:36;5.63;;;1.77;;
11827;SDS011;5971;49.646;8.568;2023-12-20T15:44:38;4.95;;;1.35;;
11827;SDS011;5971;49.646;8.568;2023-12-20T15:47:39;7.35;;;2.00;;
11827;SDS011;5971;49.646;8.568;2023-12-20T15:50:41;6.68;;;1.63;;
11827;SDS011;5971;49.646;8.568;2023-12-20T15:53:42;3.17;;;1.60;;
11827;SDS011;5971;49.646;8.568;2023-12-20T15:56:44;4.25;;;1.40;;
11827;SDS011;5971;49.646;8.568;2023-12-20T15:59:47;4.30;;;1.67;;
11827;SDS011;5971;49.646;8.568;2023-12-20T16:02:49;8.68;;;1.77;;
11827;SDS011;5971;49.646;8.568;2023-12-20T16:05:51;3.67;;;1.80;;
11827;SDS011;5971;49.646;8.568;2023-12-20T16:08:53;3.70;;;1.55;;
11827;SDS011;5971;49.646;8.568;2023-12-20T16:11:54;6.90;;;1.95;;
11827;SDS011;5971;49.646;8.568;2023-12-20T16:14:56;5.72;;;1.83;;
11827;SDS011;5971;49.646;8.568;2023-12-20T16:17:57;6.53;;;2.55;;
11827;SDS011;5971;49.646;8.568;2023-12-20T16:21:00;5.85;;;2.10;;
11827;SDS011;5971;49.646;8.568;2023-12-20T16:24:02;6.32;;;2.47;;
11827;SDS011;5971;49.646;8.568;2023-12-20T16:27:04;10.73;;;2.17;;
11827;SDS011;5971;49.646;8.568;2023-12-20T16:30:06;4.50;;;1.98;;
11827;SDS011;5971;49.646;8.568;2023-12-20T16:33:07;9.48;;;2.53;;
11827;SDS011;5971;49.646;8.568;2023-12-20T16:36:09;3.45;;;1.30;;
11827;SDS011;5971;49.646;8.568;2023-12-20T16:39:10;5.40;;;1.95;;
11827;SDS011;5971;49.646;8.568;2023-12-20T16:42:12;4.15;;;1.58;;
11827;SDS011;5971;49.646;8.568;2023-12-20T16:45:13;7.72;;;2.42;;
11827;SDS011;5971;49.646;8.568;2023-12-20T16:48:14;5.40;;;2.00;;
11827;SDS011;5971;49.646;8.568;2023-12-20T16:51:16;4.95;;;1.58;;
11827;SDS011;5971;49.646;8.568;2023-12-20T16:54:17;8.75;;;2.50;;
11827;SDS011;5971;49.646;8.568;2023-12-20T16:57:18;3.17;;;1.65;;
11827;SDS011;5971;49.646;8.568;2023-12-20T17:00:22;6.28;;;2.97;;
11827;SDS011;5971;49.646;8.568;2023-12-20T17:03:24;6.95;;;2.13;;
11827;SDS011;5971;49.646;8.568;2023-12-20T17:06:27;7.03;;;1.90;;
11827;SDS011;5971;49.646;8.568;2023-12-20T17:09:29;6.63;;;2.28;;
11827;SDS011;5971;49.646;8.568;2023-12-20T17:12:32;4.30;;;1.80;;
11827;SDS011;5971;49.646;8.568;2023-12-20T17:15:33;4.78;;;1.75;;
11827;SDS011;5971;49.646;8.568;2023-12-20T17:18:35;5.18;;;1.67;;
11827;SDS011;5971;49.646;8.568;2023-12-20T17:21:36;3.75;;;1.35;;
11827;SDS011;5971;49.646;8.568;2023-12-20T17:24:37;3.42;;;1.75;;
11827;SDS011;5971;49.646;8.568;2023-12-20T17:27:39;4.95;;;1.83;;
11827;SDS011;5971;49.646;8.568;2023-12-20T17:30:40;4.07;;;1.63;;
11827;SDS011;5971;49.646;8.568;2023-12-20T17:33:45;5.07;;;2.17;;
11827;SDS011;5971;49.646;8.568;2023-12-20T17:36:47;3.78;;;1.98;;
11827;SDS011;5971;49.646;8.568;2023-12-20T17:39:48;6.95;;;2.00;;
11827;SDS011;5971;49.646;8.568;2023-12-20T17:42:51;5.03;;;1.95;;
11827;SDS011;5971;49.646;8.568;2023-12-20T17:45:52;8.57;;;2.63;;
11827;SDS011;5971;49.646;8.568;2023-12-20T17:48:54;7.38;;;2.28;;
11827;SDS011;5971;49.646;8.568;2023-12-20T17:51:57;3.08;;;1.63;;
11827;SDS011;5971;49.646;8.568;2023-12-20T17:54:58;4.63;;;2.08;;
11827;SDS011;5971;49.646;8.568;2023-12-20T17:58:00;5.30;;;1.90;;
11827;SDS011;5971;49.646;8.568;2023-12-20T18:01:02;6.78;;;2.25;;
11827;SDS011;5971;49.646;8.568;2023-12-20T18:04:06;4.93;;;2.58;;
11827;SDS011;5971;49.646;8.568;2023-12-20T18:07:08;6.30;;;2.22;;
11827;SDS011;5971;49.646;8.568;2023-12-20T18:10:10;6.82;;;2.53;;
11827;SDS011;5971;49.646;8.568;2023-12-20T18:13:11;8.48;;;2.47;;
11827;SDS011;5971;49.646;8.568;2023-12-20T18:16:12;6.72;;;2.10;;
11827;SDS011;5971;49.646;8.568;2023-12-20T18:19:14;4.03;;;1.85;;
11827;SDS011;5971;49.646;8.568;2023-12-20T18:22:16;3.88;;;2.17;;
11827;SDS011;5971;49.646;8.568;2023-12-20T18:25:18;6.50;;;2.33;;
11827;SDS011;5971;49.646;8.568;2023-12-20T18:28:19;5.88;;;1.77;;
11827;SDS011;5971;49.646;8.568;2023-12-20T18:31:21;5.63;;;1.75;;
11827;SDS011;5971;49.646;8.568;2023-12-20T18:34:23;4.85;;;1.58;;
11827;SDS011;5971;49.646;8.568;2023-12-20T18:37:25;4.00;;;1.70;;
11827;SDS011;5971;49.646;8.568;2023-12-20T18:40:26;9.48;;;2.90;;
11827;SDS011;5971;49.646;8.568;2023-12-20T18:43:30;5.38;;;1.70;;
11827;SDS011;5971;49.646;8.568;2023-12-20T18:46:31;3.58;;;1.95;;